Time;durP1;ratioP1;P1;durP2;ratioP2;P2;SDS_P1;SDS_P2;PMS_P1;PMS_P2;Temp;Humidity;BMP_temperature;BMP_pressure;BME280_temperature;BME280_humidity;BME280_pressure;Samples;Min_cycle;Max_cycle;Signal;HPM_P1;HPM_P2
2024/04/07 00:01:32;;;;;;;4.20;1.80;;;16.30;99.90;;;;;;4945741;28;20035;-62
2024/04/07 00:04:04;;;;;;;4.80;1.90;;;16.30;99.90;;;;;;4942224;28;20419;-62
2024/04/07 00:06:31;;;;;;;5.75;2.10;;;16.30;99.90;;;;;;4946781;28;20034;-62
2024/04/07 00:08:57;;;;;;;6.80;2.35;;;16.20;99.90;;;;;;4949672;28;20027;-62
2024/04/07 00:11:23;;;;;;;4.70;1.85;;;16.20;99.90;;;;;;4950203;28;20496;-62
2024/04/07 00:13:50;;;;;;;3.60;2.00;;;16.10;99.90;;;;;;4945770;28;20022;-62
2024/04/07 00:16:18;;;;;;;5.93;2.13;;;16.10;99.90;;;;;;4945775;28;20043;-62
2024/04/07 00:18:44;;;;;;;3.20;1.52;;;16.10;99.90;;;;;;4947199;28;20108;-62
2024/04/07 00:21:09;;;;;;;5.00;2.20;;;16.00;99.90;;;;;;4945880;28;20038;-62
2024/04/07 00:23:36;;;;;;;4.85;1.83;;;16.00;99.90;;;;;;4946938;28;20129;-64
2024/04/07 00:26:01;;;;;;;4.25;1.80;;;16.00;99.90;;;;;;4946914;28;20045;-62
2024/04/07 00:28:28;;;;;;;6.38;2.10;;;15.90;99.90;;;;;;4946705;28;20023;-62
2024/04/07 00:30:54;;;;;;;5.30;2.10;;;15.90;99.90;;;;;;4945344;28;20250;-62
2024/04/07 00:33:20;;;;;;;4.93;2.08;;;15.90;99.90;;;;;;4946973;28;20111;-63
2024/04/07 00:35:56;;;;;;;4.03;2.03;;;15.90;99.90;;;;;;4947176;28;20055;-64
2024/04/07 00:38:22;;;;;;;4.07;2.00;;;15.90;99.90;;;;;;4947179;28;20031;-65
2024/04/07 00:40:49;;;;;;;3.60;1.98;;;15.80;99.90;;;;;;4948420;28;20031;-63
2024/04/07 00:43:15;;;;;;;6.70;1.80;;;15.80;99.90;;;;;;4947662;28;20182;-63
2024/04/07 00:45:41;;;;;;;5.43;1.98;;;15.70;99.90;;;;;;4947610;28;20535;-63
2024/04/07 00:48:07;;;;;;;4.97;2.20;;;15.70;99.90;;;;;;4946413;28;20031;-63
2024/04/07 00:50:35;;;;;;;5.03;1.85;;;15.70;99.90;;;;;;4948868;28;20039;-63
2024/04/07 00:53:01;;;;;;;5.68;2.03;;;15.70;99.90;;;;;;4947306;28;20019;-63
2024/04/07 00:55:29;;;;;;;5.13;1.90;;;15.60;99.90;;;;;;4946017;28;20109;-63
2024/04/07 00:57:54;;;;;;;4.07;1.92;;;15.60;99.90;;;;;;4947008;28;20032;-64
2024/04/07 01:00:20;;;;;;;5.28;2.20;;;15.60;99.90;;;;;;4949264;28;20416;-64
2024/04/07 01:02:46;;;;;;;5.95;2.00;;;15.50;99.90;;;;;;4946307;28;20480;-63
2024/04/07 01:05:12;;;;;;;7.95;2.10;;;15.50;99.90;;;;;;4946750;28;20114;-64
2024/04/07 01:07:38;;;;;;;4.93;2.28;;;15.50;99.90;;;;;;4947896;28;20070;-63
2024/04/07 01:10:08;;;;;;;5.80;2.30;;;15.40;99.90;;;;;;4947292;28;20047;-64
2024/04/07 01:12:34;;;;;;;4.57;1.95;;;15.40;99.90;;;;;;4947165;28;20046;-63
2024/04/07 01:14:59;;;;;;;3.65;1.95;;;15.40;99.90;;;;;;4945882;28;20028;-63
2024/04/07 01:17:26;;;;;;;4.55;2.03;;;15.30;99.90;;;;;;4945609;28;20070;-65
2024/04/07 01:19:54;;;;;;;4.68;2.10;;;15.30;99.90;;;;;;4946022;28;20041;-63
2024/04/07 01:22:19;;;;;;;4.50;1.88;;;15.30;99.90;;;;;;4943626;28;20023;-63
2024/04/07 01:24:45;;;;;;;4.50;2.00;;;15.30;99.90;;;;;;4945489;28;20041;-63
2024/04/07 01:27:11;;;;;;;4.80;1.88;;;15.30;99.90;;;;;;4947331;28;20042;-63
2024/04/07 01:29:37;;;;;;;4.07;2.30;;;15.30;99.90;;;;;;4945258;28;20038;-63
2024/04/07 01:32:04;;;;;;;4.28;2.10;;;15.30;99.90;;;;;;4947560;28;20042;-64
2024/04/07 01:34:30;;;;;;;3.70;2.20;;;15.30;99.90;;;;;;4945477;28;20023;-63
2024/04/07 01:36:55;;;;;;;3.40;1.90;;;15.30;99.90;;;;;;4945172;28;20452;-63
2024/04/07 01:39:21;;;;;;;3.28;2.00;;;15.30;99.90;;;;;;4944560;28;20514;-63
2024/04/07 01:41:47;;;;;;;4.18;2.00;;;15.30;99.90;;;;;;4944025;28;21446;-64
2024/04/07 01:44:13;;;;;;;3.33;1.70;;;15.30;99.90;;;;;;4943529;28;20480;-67
2024/04/07 01:46:38;;;;;;;4.72;2.00;;;15.30;99.90;;;;;;4944827;28;20030;-63
2024/04/07 01:49:04;;;;;;;5.40;1.92;;;15.30;99.90;;;;;;4948243;28;20475;-66
2024/04/07 01:51:30;;;;;;;3.30;1.70;;;15.40;99.90;;;;;;4953205;28;20078;-65
2024/04/07 01:53:56;;;;;;;4.70;1.88;;;15.40;99.90;;;;;;4945143;28;20090;-63
2024/04/07 01:56:21;;;;;;;4.78;1.67;;;15.40;99.90;;;;;;4948524;28;20051;-63
2024/04/07 01:58:47;;;;;;;3.97;1.80;;;15.40;99.90;;;;;;4925946;28;20094;-64
2024/04/07 02:01:13;;;;;;;3.90;1.90;;;15.40;99.90;;;;;;4942925;28;20023;-63
2024/04/07 02:03:39;;;;;;;4.35;2.13;;;15.50;99.90;;;;;;4943204;28;20465;-63
2024/04/07 02:06:05;;;;;;;4.15;1.90;;;15.50;99.90;;;;;;4945798;28;20022;-63
2024/04/07 02:08:30;;;;;;;2.70;1.60;;;15.50;99.90;;;;;;4949593;28;20032;-63
2024/04/07 02:10:56;;;;;;;3.92;2.20;;;15.50;99.90;;;;;;4947403;28;20086;-63
2024/04/07 02:13:22;;;;;;;3.72;1.90;;;15.50;99.90;;;;;;4948365;28;20408;-63
2024/04/07 02:15:49;;;;;;;6.88;2.67;;;15.50;99.90;;;;;;4949460;28;20038;-64
2024/04/07 02:18:15;;;;;;;9.05;4.97;;;15.50;99.90;;;;;;4942877;28;20024;-63
2024/04/07 02:20:49;;;;;;;7.38;4.50;;;15.50;99.90;;;;;;4947258;28;20035;-63
2024/04/07 02:23:15;;;;;;;9.18;3.40;;;15.40;99.90;;;;;;4946793;28;20074;-66
2024/04/07 02:25:41;;;;;;;6.72;2.90;;;15.50;99.90;;;;;;4943375;28;20055;-65
2024/04/07 02:28:07;;;;;;;5.28;2.40;;;15.50;99.90;;;;;;4943982;28;20066;-63
2024/04/07 02:30:35;;;;;;;5.43;2.10;;;15.50;99.90;;;;;;4951883;28;20059;-63
2024/04/07 02:33:04;;;;;;;4.05;1.98;;;15.50;99.90;;;;;;4946850;28;20023;-63
2024/04/07 02:35:31;;;;;;;4.68;1.70;;;15.60;99.90;;;;;;4943120;28;20126;-63
2024/04/07 02:37:58;;;;;;;3.60;1.63;;;15.60;99.90;;;;;;4947526;28;20046;-63
2024/04/07 02:40:24;;;;;;;4.40;1.85;;;15.70;99.90;;;;;;4948953;28;20447;-63
2024/04/07 02:42:52;;;;;;;4.60;1.88;;;15.70;99.90;;;;;;4948559;28;20039;-64
2024/04/07 02:48:06;;;;;;;4.00;1.90;;;15.90;99.90;;;;;;4949334;28;20746;-65
2024/04/07 02:50:35;;;;;;;5.70;1.90;;;15.90;99.90;;;;;;4950031;28;20675;-63
2024/04/07 02:53:02;;;;;;;4.10;2.10;;;15.90;99.90;;;;;;4949161;28;20031;-63
2024/04/07 02:55:27;;;;;;;6.63;1.80;;;15.90;99.90;;;;;;4947369;28;20699;-67
2024/04/07 02:57:54;;;;;;;6.85;2.30;;;15.90;99.90;;;;;;4948234;28;20039;-63
2024/04/07 03:00:20;;;;;;;4.90;2.03;;;16.00;99.90;;;;;;4945906;28;20035;-64
2024/04/07 03:02:46;;;;;;;4.15;1.70;;;16.00;99.90;;;;;;4945893;28;20079;-63
2024/04/07 03:05:13;;;;;;;4.35;1.85;;;16.00;99.90;;;;;;4951124;28;20035;-64
2024/04/07 03:07:39;;;;;;;5.18;1.73;;;16.00;99.90;;;;;;4946250;28;20475;-63
2024/04/07 03:10:06;;;;;;;4.22;2.00;;;16.00;99.90;;;;;;4949605;28;20046;-65
2024/04/07 03:12:32;;;;;;;7.53;1.90;;;16.00;99.90;;;;;;4950879;28;20039;-63
2024/04/07 03:15:01;;;;;;;4.07;1.70;;;16.00;99.90;;;;;;4947511;28;20110;-64
2024/04/07 03:17:27;;;;;;;3.55;1.70;;;16.10;99.90;;;;;;4947628;28;20114;-63
2024/04/07 03:19:53;;;;;;;4.10;1.80;;;16.10;99.90;;;;;;4950298;28;20043;-63
2024/04/07 03:22:19;;;;;;;5.35;1.90;;;16.10;99.90;;;;;;4947702;28;20031;-64
2024/04/07 03:24:45;;;;;;;4.45;1.95;;;16.10;99.90;;;;;;4945610;28;20043;-63
2024/04/07 03:27:10;;;;;;;7.43;2.35;;;16.10;99.90;;;;;;4946747;28;20114;-64
2024/04/07 03:29:37;;;;;;;6.85;2.05;;;16.10;99.90;;;;;;4946023;28;20023;-63
2024/04/07 03:32:03;;;;;;;5.78;1.75;;;16.20;99.90;;;;;;4949945;28;20023;-63
2024/04/07 03:34:30;;;;;;;3.85;1.90;;;16.20;99.90;;;;;;4945535;28;20040;-63
2024/04/07 03:36:56;;;;;;;4.15;1.90;;;16.20;99.90;;;;;;4949247;28;20030;-64
2024/04/07 03:39:24;;;;;;;6.30;2.25;;;16.10;99.90;;;;;;4945970;28;20027;-63
2024/04/07 03:41:51;;;;;;;5.63;2.13;;;16.20;99.90;;;;;;4945085;28;20031;-63
2024/04/07 03:44:17;;;;;;;4.82;2.25;;;16.20;99.90;;;;;;4946223;28;20377;-63
2024/04/07 03:46:42;;;;;;;8.38;2.70;;;16.20;99.90;;;;;;4953319;28;20101;-63
2024/04/07 03:49:09;;;;;;;5.70;2.50;;;16.20;99.90;;;;;;4948430;28;20027;-65
2024/04/07 03:51:34;;;;;;;4.70;2.53;;;16.20;99.90;;;;;;4947692;28;20471;-64
2024/04/07 03:54:00;;;;;;;5.22;2.50;;;16.20;99.90;;;;;;4947427;28;20054;-64
2024/04/07 03:56:27;;;;;;;5.75;2.70;;;16.10;99.90;;;;;;4943664;28;20039;-64
2024/04/07 03:58:53;;;;;;;4.15;2.67;;;16.10;99.90;;;;;;4954781;28;20392;-64
2024/04/07 04:01:18;;;;;;;5.65;2.60;;;16.10;99.90;;;;;;4943908;28;20078;-63
2024/04/07 04:03:44;;;;;;;5.95;2.42;;;16.10;99.90;;;;;;4944037;28;20043;-63
2024/04/07 04:06:10;;;;;;;6.07;2.78;;;16.00;99.90;;;;;;4948270;28;20082;-64
2024/04/07 04:08:36;;;;;;;7.18;2.80;;;16.00;99.90;;;;;;4946396;28;20399;-64
2024/04/07 04:11:04;;;;;;;7.25;2.63;;;16.00;99.90;;;;;;4947248;28;20453;-63
2024/04/07 04:13:31;;;;;;;9.52;3.13;;;16.00;99.90;;;;;;4949579;28;20149;-65
2024/04/07 04:15:59;;;;;;;6.22;2.40;;;16.00;99.90;;;;;;4947610;28;20023;-64
2024/04/07 04:18:25;;;;;;;6.40;2.53;;;16.00;99.90;;;;;;4945395;28;20115;-64
2024/04/07 04:20:51;;;;;;;5.10;2.47;;;16.00;99.90;;;;;;4944561;28;21644;-64
2024/04/07 04:23:16;;;;;;;5.70;2.42;;;16.00;99.90;;;;;;4945204;28;20034;-63
2024/04/07 04:25:51;;;;;;;7.20;2.40;;;15.90;99.90;;;;;;4946314;28;20023;-63
2024/04/07 04:28:17;;;;;;;6.28;2.80;;;15.90;99.90;;;;;;4948914;28;20065;-63
2024/04/07 04:30:54;;;;;;;6.32;2.83;;;15.90;99.90;;;;;;4947706;28;20047;-64
2024/04/07 04:33:23;;;;;;;6.20;2.42;;;15.80;99.90;;;;;;4944148;28;20035;-63
2024/04/07 04:35:49;;;;;;;7.35;2.60;;;15.90;99.90;;;;;;4943381;28;20374;-63
2024/04/07 04:38:16;;;;;;;8.55;2.72;;;15.90;99.90;;;;;;4944935;28;20027;-63
2024/04/07 04:40:57;;;;;;;6.32;2.58;;;15.80;99.90;;;;;;4944842;28;20035;-64
2024/04/07 04:43:24;;;;;;;10.85;2.67;;;15.90;99.90;;;;;;4941950;28;20042;-63
2024/04/07 04:46:03;;;;;;;7.20;2.13;;;15.80;99.90;;;;;;4946970;28;20039;-65
2024/04/07 04:48:33;;;;;;;7.07;2.72;;;15.80;99.90;;;;;;4945298;28;20051;-63
2024/04/07 04:51:00;;;;;;;10.52;2.35;;;15.80;99.90;;;;;;4955897;28;20027;-63
2024/04/07 04:53:26;;;;;;;11.13;2.47;;;15.80;99.90;;;;;;4945222;28;20032;-63
2024/04/07 04:55:52;;;;;;;6.68;1.90;;;15.80;99.90;;;;;;4943968;28;20343;-63
2024/04/07 04:58:19;;;;;;;6.75;2.10;;;15.80;99.90;;;;;;4945149;28;20031;-63
2024/04/07 05:00:46;;;;;;;7.65;1.90;;;15.80;99.90;;;;;;4942131;28;20038;-63
2024/04/07 05:03:12;;;;;;;8.18;1.88;;;15.80;99.90;;;;;;4944464;28;20070;-63
2024/04/07 05:05:38;;;;;;;5.30;1.70;;;15.80;99.90;;;;;;4945754;28;20059;-63
2024/04/07 05:08:05;;;;;;;5.35;1.70;;;15.80;99.90;;;;;;4950713;28;20090;-64
2024/04/07 05:10:31;;;;;;;5.35;1.60;;;15.80;99.90;;;;;;4946133;28;20130;-63
2024/04/07 05:12:57;;;;;;;5.55;1.63;;;15.80;99.90;;;;;;4947482;28;20027;-64
2024/04/07 05:15:24;;;;;;;6.10;1.60;;;15.80;99.90;;;;;;4948465;28;20039;-65
2024/04/07 05:17:50;;;;;;;7.00;1.70;;;15.80;99.90;;;;;;4948028;28;20019;-65
2024/04/07 05:20:16;;;;;;;6.43;1.55;;;15.80;99.90;;;;;;4947137;28;20164;-63
2024/04/07 05:22:42;;;;;;;6.78;1.50;;;15.80;99.90;;;;;;4929084;28;20059;-63
2024/04/07 05:25:11;;;;;;;5.63;1.80;;;15.80;99.90;;;;;;4949146;28;20039;-63
2024/04/07 05:27:37;;;;;;;4.40;1.55;;;15.80;99.90;;;;;;4944464;28;20039;-62
2024/04/07 05:30:03;;;;;;;6.82;1.50;;;15.80;99.90;;;;;;4938864;28;20035;-63
2024/04/07 05:32:30;;;;;;;6.63;1.45;;;15.80;99.90;;;;;;4922520;28;20039;-62
2024/04/07 05:34:56;;;;;;;5.60;1.55;;;15.80;99.90;;;;;;4928432;28;20539;-62
2024/04/07 05:37:21;;;;;;;5.72;1.55;;;15.70;99.90;;;;;;4937030;28;20114;-63
2024/04/07 05:39:49;;;;;;;4.93;1.23;;;15.70;99.90;;;;;;4947937;28;20022;-63
2024/04/07 05:42:15;;;;;;;9.43;1.70;;;15.70;99.90;;;;;;4958513;28;20066;-63
2024/04/07 05:44:41;;;;;;;7.07;1.70;;;15.60;99.90;;;;;;4945427;28;20101;-63
2024/04/07 05:47:08;;;;;;;6.63;1.40;;;15.60;99.90;;;;;;4948001;28;20027;-63
2024/04/07 05:49:34;;;;;;;4.03;1.23;;;15.60;99.90;;;;;;4943813;28;20042;-64
2024/04/07 05:52:00;;;;;;;2.90;1.15;;;15.60;99.90;;;;;;4945657;28;20110;-63
2024/04/07 05:54:29;;;;;;;7.70;1.58;;;15.60;99.90;;;;;;4944412;28;20134;-63
2024/04/07 05:56:55;;;;;;;4.80;1.17;;;15.60;99.90;;;;;;4945774;28;20035;-63
2024/04/07 05:59:21;;;;;;;5.88;1.23;;;15.60;99.90;;;;;;4944759;28;20028;-62
2024/04/07 06:01:46;;;;;;;5.00;1.42;;;15.50;99.90;;;;;;4944450;28;20514;-65
2024/04/07 06:04:12;;;;;;;5.10;1.20;;;15.50;99.90;;;;;;4948808;28;20510;-65
2024/04/07 06:06:38;;;;;;;5.30;1.40;;;15.50;99.90;;;;;;4947933;28;20396;-64
2024/04/07 06:09:04;;;;;;;5.95;1.25;;;15.40;99.90;;;;;;4948116;28;20069;-64
2024/04/07 06:11:30;;;;;;;4.78;1.30;;;15.50;99.90;;;;;;4950758;28;20081;-64
2024/04/07 06:13:56;;;;;;;4.40;1.20;;;15.40;99.90;;;;;;4949991;28;20492;-64
2024/04/07 06:16:22;;;;;;;5.13;1.20;;;15.40;99.90;;;;;;4946835;28;20019;-64
2024/04/07 06:18:48;;;;;;;3.70;1.20;;;15.30;99.90;;;;;;4948881;28;20031;-64
2024/04/07 06:21:14;;;;;;;2.70;0.98;;;15.30;99.90;;;;;;4948388;28;20019;-65
2024/04/07 06:23:42;;;;;;;5.25;1.20;;;15.30;99.90;;;;;;4945310;28;20600;-64
2024/04/07 06:26:08;;;;;;;5.80;1.58;;;15.30;99.90;;;;;;4950800;28;20443;-64
2024/04/07 06:28:34;;;;;;;7.00;1.88;;;15.30;99.90;;;;;;4947419;28;20035;-64
2024/04/07 06:31:01;;;;;;;6.80;1.73;;;15.20;99.90;;;;;;4949503;28;20035;-62
2024/04/07 06:33:27;;;;;;;6.47;1.60;;;15.20;99.90;;;;;;4949553;28;20039;-62
2024/04/07 06:35:53;;;;;;;5.75;1.70;;;15.20;99.90;;;;;;4947189;28;20031;-62
2024/04/07 06:38:19;;;;;;;4.55;1.60;;;15.20;99.90;;;;;;4946938;28;20027;-62
2024/04/07 06:40:45;;;;;;;6.57;1.90;;;15.20;99.90;;;;;;4949272;28;20030;-62
2024/04/07 06:43:11;;;;;;;4.72;2.00;;;15.20;99.90;;;;;;4947657;28;20090;-63
2024/04/07 06:45:37;;;;;;;4.10;1.70;;;15.20;99.90;;;;;;4946209;28;20099;-62
2024/04/07 06:48:03;;;;;;;5.82;1.70;;;15.10;99.90;;;;;;4948892;28;20039;-62
2024/04/07 06:50:30;;;;;;;7.40;1.60;;;15.10;99.90;;;;;;4945259;28;20122;-62
2024/04/07 06:52:56;;;;;;;6.78;2.00;;;15.10;99.90;;;;;;4944676;28;20035;-63
2024/04/07 06:55:22;;;;;;;5.78;1.65;;;15.10;99.90;;;;;;4949830;28;20052;-62
2024/04/07 06:57:48;;;;;;;5.55;1.58;;;15.20;99.90;;;;;;4950550;28;20122;-63
2024/04/07 07:00:13;;;;;;;8.68;2.10;;;15.20;99.90;;;;;;4948920;28;20031;-62
2024/04/07 07:02:39;;;;;;;5.30;1.50;;;15.20;99.90;;;;;;4947888;28;20024;-62
2024/04/07 07:05:05;;;;;;;6.40;1.70;;;15.10;99.90;;;;;;4949384;28;20053;-62
2024/04/07 07:07:31;;;;;;;4.07;1.70;;;15.10;99.90;;;;;;4949661;28;20555;-62
2024/04/07 07:09:57;;;;;;;6.28;1.58;;;15.10;99.90;;;;;;4948388;28;20039;-62
2024/04/07 07:12:23;;;;;;;5.65;1.50;;;15.20;99.90;;;;;;4946439;28;20039;-62
2024/04/07 07:14:49;;;;;;;5.25;1.70;;;15.20;99.90;;;;;;4948621;28;20070;-62
2024/04/07 07:17:15;;;;;;;7.43;1.90;;;15.20;99.90;;;;;;4948101;28;20027;-63
2024/04/07 07:19:41;;;;;;;6.00;1.98;;;15.30;99.90;;;;;;4946722;28;20039;-62
2024/04/07 07:22:06;;;;;;;7.03;1.95;;;15.30;99.90;;;;;;4949923;28;20636;-62
2024/04/07 07:24:32;;;;;;;7.43;1.92;;;15.30;99.90;;;;;;4947200;28;20061;-63
2024/04/07 07:26:58;;;;;;;6.20;1.70;;;15.30;99.90;;;;;;4953664;28;20598;-63
2024/04/07 07:29:24;;;;;;;6.60;1.80;;;15.30;99.90;;;;;;4940987;28;20094;-63
2024/04/07 07:31:50;;;;;;;6.53;1.85;;;15.40;99.90;;;;;;4950262;28;20020;-62
2024/04/07 07:34:16;;;;;;;6.47;2.05;;;15.40;99.90;;;;;;4946039;28;20019;-62
2024/04/07 07:36:41;;;;;;;8.40;1.90;;;15.40;99.90;;;;;;4949098;28;20629;-64
2024/04/07 07:39:07;;;;;;;7.13;1.88;;;15.40;99.90;;;;;;4947592;28;20030;-63
2024/04/07 07:41:33;;;;;;;7.07;1.90;;;15.50;99.90;;;;;;4945943;28;20041;-63
2024/04/07 07:43:58;;;;;;;7.45;1.73;;;15.50;99.90;;;;;;4937016;28;20023;-63
2024/04/07 07:46:24;;;;;;;4.07;1.70;;;15.60;99.90;;;;;;4945982;28;20023;-63
2024/04/07 07:48:50;;;;;;;8.30;1.77;;;15.60;99.90;;;;;;4948611;28;20411;-63
2024/04/07 07:51:17;;;;;;;6.75;1.80;;;15.60;99.90;;;;;;4950773;28;20030;-63
2024/04/07 07:53:43;;;;;;;4.15;1.40;;;15.70;99.90;;;;;;4948776;28;20039;-63
2024/04/07 07:56:09;;;;;;;4.85;1.60;;;15.80;99.90;;;;;;4944895;28;20484;-62
2024/04/07 07:58:36;;;;;;;6.10;1.83;;;15.80;99.90;;;;;;4946472;28;20030;-63
2024/04/07 08:01:03;;;;;;;6.35;1.55;;;15.80;99.90;;;;;;4947666;28;20020;-62
2024/04/07 08:03:29;;;;;;;4.88;1.40;;;15.90;99.90;;;;;;4945666;28;20027;-63
2024/04/07 08:05:55;;;;;;;4.32;1.30;;;16.00;99.90;;;;;;4949191;28;20034;-63
2024/04/07 08:08:21;;;;;;;4.03;1.30;;;16.00;99.90;;;;;;4945664;28;20020;-63
2024/04/07 08:10:50;;;;;;;3.60;1.30;;;16.00;99.90;;;;;;4947744;28;20057;-63
2024/04/07 08:13:16;;;;;;;5.47;1.25;;;16.00;99.90;;;;;;4946069;28;20059;-63
2024/04/07 08:15:46;;;;;;;4.47;1.20;;;16.10;99.90;;;;;;4946525;28;20058;-63
2024/04/07 08:18:12;;;;;;;4.10;1.70;;;16.10;99.90;;;;;;4948599;28;20504;-63
2024/04/07 08:20:39;;;;;;;5.72;2.20;;;16.20;99.90;;;;;;4948758;28;20078;-63
2024/04/07 08:23:05;;;;;;;4.60;0.95;;;16.20;99.90;;;;;;4947130;28;20519;-63
2024/04/07 08:25:32;;;;;;;3.33;0.80;;;16.30;99.90;;;;;;4943360;28;20035;-65
2024/04/07 08:27:57;;;;;;;4.05;0.80;;;16.30;99.90;;;;;;4946147;28;20047;-63
2024/04/07 08:30:23;;;;;;;2.80;0.90;;;16.40;99.90;;;;;;4943924;28;20126;-63
2024/04/07 08:32:49;;;;;;;2.15;0.60;;;16.50;99.90;;;;;;4942059;28;20023;-63
2024/04/07 08:35:14;;;;;;;3.28;0.70;;;16.50;99.90;;;;;;4948083;28;20019;-63
2024/04/07 08:37:40;;;;;;;2.63;0.75;;;16.50;99.90;;;;;;4944349;28;20030;-65
2024/04/07 08:40:07;;;;;;;3.33;0.45;;;16.60;99.90;;;;;;4946140;28;20019;-63
2024/04/07 08:42:33;;;;;;;2.67;0.73;;;16.70;99.90;;;;;;4943453;28;20095;-63
2024/04/07 08:45:03;;;;;;;2.13;0.60;;;16.70;99.90;;;;;;4944816;28;20071;-63
2024/04/07 08:47:29;;;;;;;3.55;0.55;;;16.80;99.90;;;;;;4947124;28;20508;-63
2024/04/07 08:49:56;;;;;;;4.15;0.52;;;16.80;99.90;;;;;;4949385;28;20035;-63
2024/04/07 08:52:22;;;;;;;1.90;0.60;;;16.90;99.90;;;;;;4948252;28;20365;-64
2024/04/07 08:54:49;;;;;;;2.53;0.57;;;16.90;99.90;;;;;;4944340;28;20028;-63
2024/04/07 08:57:15;;;;;;;1.73;0.70;;;17.00;99.90;;;;;;4948161;28;20419;-63
2024/04/07 08:59:45;;;;;;;5.53;0.50;;;17.00;99.90;;;;;;4946098;28;20042;-63
2024/04/07 09:02:13;;;;;;;2.67;0.50;;;17.10;99.90;;;;;;4945226;28;20623;-63
2024/04/07 09:04:38;;;;;;;5.68;0.70;;;17.20;99.90;;;;;;4926937;28;20027;-63
2024/04/07 09:07:04;;;;;;;2.92;0.60;;;17.20;99.90;;;;;;4944589;28;20027;-63
2024/04/07 09:09:31;;;;;;;2.53;0.68;;;17.30;99.90;;;;;;4949629;28;20042;-63
2024/04/07 09:11:58;;;;;;;1.98;0.60;;;17.30;99.90;;;;;;4947143;28;20083;-64
2024/04/07 09:14:26;;;;;;;3.13;0.68;;;17.30;99.90;;;;;;4947258;28;20587;-65
2024/04/07 09:17:05;;;;;;;2.95;0.80;;;17.30;99.90;;;;;;4946539;28;20089;-65
2024/04/07 09:19:40;;;;;;;2.47;0.60;;;17.40;99.90;;;;;;4946261;28;20373;-64
2024/04/07 09:22:07;;;;;;;3.50;0.63;;;17.50;99.90;;;;;;4946729;28;20031;-64
2024/04/07 09:24:35;;;;;;;3.00;0.82;;;17.50;99.90;;;;;;4944295;28;20027;-64
2024/04/07 09:27:16;;;;;;;3.53;1.00;;;17.50;99.90;;;;;;4946363;28;20436;-64
2024/04/07 09:29:41;;;;;;;2.08;0.52;;;17.60;99.90;;;;;;4943861;28;20035;-64
2024/04/07 09:32:08;;;;;;;4.30;0.85;;;17.70;99.90;;;;;;4950040;28;20042;-65
2024/04/07 09:34:37;;;;;;;2.55;0.80;;;17.70;99.90;;;;;;4942551;28;20031;-64
2024/04/07 09:37:03;;;;;;;4.05;0.80;;;17.80;99.90;;;;;;4954461;28;20070;-64
2024/04/07 09:39:29;;;;;;;1.98;0.85;;;17.80;99.90;;;;;;4943759;28;20031;-64
2024/04/07 09:42:00;;;;;;;3.65;0.80;;;17.80;99.90;;;;;;4948945;28;20027;-64
2024/04/07 09:44:33;;;;;;;2.97;0.77;;;17.80;99.90;;;;;;4946782;28;20035;-65
2024/04/07 09:47:03;;;;;;;2.85;0.60;;;17.90;99.90;;;;;;4947036;28;20090;-64
2024/04/07 09:49:34;;;;;;;2.30;0.57;;;17.90;99.90;;;;;;4942366;28;20035;-64
2024/04/07 09:52:04;;;;;;;2.95;0.70;;;17.90;99.90;;;;;;4947353;28;20083;-65
2024/04/07 09:54:46;;;;;;;3.17;1.08;;;18.00;99.90;;;;;;4944730;28;20030;-64
2024/04/07 09:57:16;;;;;;;2.47;0.60;;;18.10;99.90;;;;;;4943124;28;20102;-64
2024/04/07 09:59:43;;;;;;;3.30;0.60;;;18.10;99.90;;;;;;4944335;28;20027;-65
2024/04/07 10:02:13;;;;;;;3.15;0.40;;;18.10;99.90;;;;;;4948903;28;20023;-65
2024/04/07 10:04:40;;;;;;;3.20;0.80;;;18.10;99.90;;;;;;4949678;28;20035;-65
2024/04/07 10:07:09;;;;;;;4.07;0.70;;;18.10;99.90;;;;;;4951533;28;20031;-64
2024/04/07 10:09:36;;;;;;;1.60;0.40;;;18.20;99.90;;;;;;4943778;28;20420;-64
2024/04/07 10:12:02;;;;;;;4.70;0.88;;;18.10;99.90;;;;;;4948120;28;20027;-65
2024/04/07 10:14:41;;;;;;;3.47;0.50;;;18.10;99.90;;;;;;4945149;28;20049;-64
2024/04/07 10:17:09;;;;;;;2.53;0.50;;;18.10;99.90;;;;;;4946734;28;20046;-64
2024/04/07 10:19:42;;;;;;;2.35;0.65;;;18.10;99.90;;;;;;4944819;28;20031;-64
2024/04/07 10:22:08;;;;;;;4.43;0.73;;;18.10;99.90;;;;;;4945064;28;20033;-64
2024/04/07 10:24:35;;;;;;;5.45;0.80;;;18.10;99.90;;;;;;4946385;28;20024;-65
2024/04/07 10:27:01;;;;;;;2.13;0.63;;;18.10;99.90;;;;;;4946888;28;20027;-64
2024/04/07 10:29:28;;;;;;;2.38;0.50;;;18.10;99.90;;;;;;4945035;28;20078;-65
2024/04/07 10:31:54;;;;;;;3.00;0.68;;;18.10;99.90;;;;;;4945724;28;20851;-65
2024/04/07 10:34:19;;;;;;;3.65;0.60;;;18.10;99.90;;;;;;4943550;28;20537;-64
2024/04/07 10:36:53;;;;;;;4.28;0.90;;;18.10;99.90;;;;;;4945235;28;20031;-64
2024/04/07 10:39:29;;;;;;;2.10;0.70;;;18.10;99.90;;;;;;4945750;28;20104;-64
2024/04/07 10:41:54;;;;;;;3.78;0.80;;;18.10;99.90;;;;;;4948874;28;20035;-64
2024/04/07 10:44:20;;;;;;;3.67;0.70;;;18.10;99.90;;;;;;4945851;28;20035;-64
2024/04/07 10:46:47;;;;;;;2.33;0.60;;;18.10;99.90;;;;;;4944033;28;20047;-65
2024/04/07 10:49:13;;;;;;;3.60;0.60;;;18.20;99.90;;;;;;4943255;28;20050;-67
2024/04/07 10:51:38;;;;;;;4.07;0.60;;;18.20;99.90;;;;;;4949301;28;20087;-64
2024/04/07 10:54:06;;;;;;;2.28;0.60;;;18.30;99.90;;;;;;4946630;28;20066;-64
2024/04/07 10:56:33;;;;;;;3.30;0.80;;;18.40;99.90;;;;;;4944543;28;20035;-65
2024/04/07 10:59:01;;;;;;;2.78;0.60;;;18.50;99.90;;;;;;4942672;28;20508;-64
2024/04/07 11:01:27;;;;;;;3.83;0.40;;;18.60;99.90;;;;;;4942133;28;20031;-65
2024/04/07 11:03:59;;;;;;;3.53;0.75;;;18.60;99.90;;;;;;4946980;28;20102;-64
2024/04/07 11:06:25;;;;;;;3.20;0.63;;;18.60;99.90;;;;;;4943526;28;20507;-64
2024/04/07 11:08:52;;;;;;;4.18;0.70;;;18.60;99.90;;;;;;4944810;28;20094;-64
2024/04/07 11:11:20;;;;;;;2.45;0.50;;;18.60;99.90;;;;;;4944779;28;20027;-64
2024/04/07 11:13:46;;;;;;;3.25;0.50;;;18.70;99.90;;;;;;4945339;28;20027;-64
2024/04/07 11:16:12;;;;;;;2.88;0.52;;;18.60;99.90;;;;;;4947874;28;20143;-64
2024/04/07 11:18:39;;;;;;;2.67;0.60;;;18.70;99.90;;;;;;4944516;28;20074;-64
2024/04/07 11:21:05;;;;;;;3.55;0.73;;;18.70;99.90;;;;;;4949729;28;20047;-64
2024/04/07 11:23:32;;;;;;;1.92;0.45;;;18.70;99.90;;;;;;4948558;28;20065;-65
2024/04/07 11:25:59;;;;;;;3.88;0.68;;;18.80;99.90;;;;;;4947485;28;20038;-64
2024/04/07 11:28:25;;;;;;;2.15;0.50;;;18.80;99.90;;;;;;4949462;28;20027;-65
2024/04/07 11:30:56;;;;;;;1.63;0.40;;;18.90;99.90;;;;;;4950231;28;20035;-64
2024/04/07 11:33:23;;;;;;;;;;;19.00;99.90;;;;;;4949776;28;20030;-64
2024/04/07 11:35:49;;;;;;;1.77;0.38;;;19.10;99.90;;;;;;4949793;28;19914;-64
2024/04/07 11:38:15;;;;;;;1.77;0.57;;;19.20;99.90;;;;;;4949875;28;20031;-64
2024/04/07 11:40:41;;;;;;;1.95;0.50;;;19.20;99.90;;;;;;4950524;28;20058;-65
2024/04/07 11:43:10;;;;;;;3.10;0.50;;;19.30;99.90;;;;;;4949808;28;20038;-64
2024/04/07 11:45:38;;;;;;;4.55;0.70;;;19.30;99.90;;;;;;4945760;28;20412;-65
2024/04/07 11:48:05;;;;;;;2.33;0.60;;;19.30;99.90;;;;;;4950103;28;20027;-64
2024/04/07 11:50:31;;;;;;;2.85;0.47;;;19.30;99.90;;;;;;4946605;28;20645;-64
2024/04/07 11:52:57;;;;;;;2.47;0.60;;;19.30;99.90;;;;;;4947723;28;20035;-64
2024/04/07 11:55:23;;;;;;;2.55;0.50;;;19.30;99.90;;;;;;4949740;28;20617;-64
2024/04/07 11:57:49;;;;;;;2.33;0.50;;;19.50;99.90;;;;;;4948610;28;20122;-64
2024/04/07 12:00:15;;;;;;;1.73;0.60;;;19.60;99.90;;;;;;4950027;28;20102;-65
2024/04/07 12:02:41;;;;;;;3.45;0.68;;;19.60;99.90;;;;;;4944963;28;20507;-64
2024/04/07 12:05:07;;;;;;;1.77;0.50;;;19.60;99.90;;;;;;4947190;28;20038;-63
2024/04/07 12:07:34;;;;;;;2.25;0.55;;;19.70;99.90;;;;;;4946476;28;20031;-64
2024/04/07 12:10:00;;;;;;;3.42;0.70;;;19.80;99.90;;;;;;4947338;28;20038;-63
2024/04/07 12:12:27;;;;;;;3.75;0.40;;;19.70;99.90;;;;;;4945951;28;20047;-64
2024/04/07 12:14:53;;;;;;;3.10;0.60;;;19.80;99.90;;;;;;4948067;28;20074;-63
2024/04/07 12:17:19;;;;;;;3.08;0.80;;;19.70;99.90;;;;;;4948465;28;20027;-63
2024/04/07 12:19:45;;;;;;;3.88;0.65;;;19.60;99.90;;;;;;4943075;28;21465;-64
2024/04/07 12:22:18;;;;;;;1.15;0.40;;;19.60;99.90;;;;;;4945894;28;20040;-63
2024/04/07 12:24:44;;;;;;;2.28;0.45;;;19.70;99.90;;;;;;4942772;28;20496;-64
2024/04/07 12:27:10;;;;;;;3.78;0.70;;;19.70;99.90;;;;;;4944658;28;20428;-65
2024/04/07 12:29:39;;;;;;;1.73;0.50;;;19.80;99.90;;;;;;4953324;28;20042;-64
2024/04/07 12:32:05;;;;;;;3.30;0.70;;;19.80;99.90;;;;;;4942460;28;20039;-64
2024/04/07 12:34:31;;;;;;;2.17;0.43;;;19.90;99.90;;;;;;4945577;28;20043;-65
2024/04/07 12:36:57;;;;;;;2.60;0.60;;;20.00;99.90;;;;;;4945027;28;20037;-65
2024/04/07 12:39:23;;;;;;;2.90;0.70;;;20.00;99.90;;;;;;4943718;28;20023;-65
2024/04/07 12:41:51;;;;;;;3.22;0.60;;;19.90;99.90;;;;;;4947145;28;20023;-64
2024/04/07 12:44:18;;;;;;;2.53;0.55;;;19.90;99.90;;;;;;4947647;28;20023;-64
2024/04/07 12:46:45;;;;;;;2.92;0.70;;;20.00;99.90;;;;;;4948871;28;20047;-64
2024/04/07 12:49:19;;;;;;;2.70;0.60;;;20.10;99.90;;;;;;4945987;28;20031;-64